Map

Track Data

SID SEASON NUMBER BASIN SUBBASIN NAME ISO_TIME NATURE LAT LON WMO_WIND WMO_PRES WMO_AGENCY TRACK_TYPE DIST2LAND LANDFALL IFLAG USA_AGENCY USA_ATCF_ID USA_LAT USA_LON USA_RECORD USA_STATUS USA_WIND USA_PRES USA_SSHS USA_R34_NE USA_R34_SE USA_R34_SW USA_R34_NW USA_R50_NE USA_R50_SE USA_R50_SW USA_R50_NW USA_R64_NE USA_R64_SE USA_R64_SW USA_R64_NW USA_POCI USA_ROCI USA_RMW USA_EYE TOKYO_LAT TOKYO_LON TOKYO_GRADE TOKYO_WIND TOKYO_PRES TOKYO_R50_DIR TOKYO_R50_LONG TOKYO_R50_SHORT TOKYO_R30_DIR TOKYO_R30_LONG TOKYO_R30_SHORT TOKYO_LAND CMA_LAT CMA_LON CMA_CAT CMA_WIND CMA_PRES HKO_LAT HKO_LON HKO_CAT HKO_WIND HKO_PRES NEWDELHI_LAT NEWDELHI_LON NEWDELHI_GRADE NEWDELHI_WIND NEWDELHI_PRES NEWDELHI_CI NEWDELHI_DP NEWDELHI_POCI REUNION_LAT REUNION_LON REUNION_TYPE REUNION_WIND REUNION_PRES REUNION_TNUM REUNION_CI REUNION_RMW REUNION_R34_NE REUNION_R34_SE REUNION_R34_SW REUNION_R34_NW REUNION_R50_NE REUNION_R50_SE REUNION_R50_SW REUNION_R50_NW REUNION_R64_NE REUNION_R64_SE REUNION_R64_SW REUNION_R64_NW BOM_LAT BOM_LON BOM_TYPE BOM_WIND BOM_PRES BOM_TNUM BOM_CI BOM_RMW BOM_R34_NE BOM_R34_SE BOM_R34_SW BOM_R34_NW BOM_R50_NE BOM_R50_SE BOM_R50_SW BOM_R50_NW BOM_R64_NE BOM_R64_SE BOM_R64_SW BOM_R64_NW BOM_ROCI BOM_POCI BOM_EYE BOM_POS_METHOD BOM_PRES_METHOD NADI_LAT NADI_LON NADI_CAT NADI_WIND NADI_PRES WELLINGTON_LAT WELLINGTON_LON WELLINGTON_WIND WELLINGTON_PRES DS824_LAT DS824_LON DS824_STAGE DS824_WIND DS824_PRES TD9636_LAT TD9636_LON TD9636_STAGE TD9636_WIND TD9636_PRES TD9635_LAT TD9635_LON TD9635_WIND TD9635_PRES TD9635_ROCI NEUMANN_LAT NEUMANN_LON NEUMANN_CLASS NEUMANN_WIND NEUMANN_PRES MLC_LAT MLC_LON MLC_CLASS MLC_WIND MLC_PRES USA_GUST BOM_GUST BOM_GUST_PER REUNION_GUST REUNION_GUST_PER USA_SEAHGT USA_SEARAD_NE USA_SEARAD_SE USA_SEARAD_SW USA_SEARAD_NW STORM_SPEED STORM_DIR
1955107N07139 1955 29 WP MM ANITA 1955-04-17 00:00:00 TS 6.81667 139.467 990 tokyo main 940 940 OOO______OOO__ jtwc_wp WP031955 6.80000 139.500 70 1 6.80000 139.400 9 990 0 0 0 6.90000 139.400 3 58 995 6.80000 139.500 TC 70 6.80000 139.500 3 70 6.80000 139.500 70 985 180 5 4
1955107N07139 1955 29 WP MM ANITA 1955-04-17 03:00:00 TS 7.06927 139.474 main 971 971 PPP______PPP__ WP031955 7.00251 139.505 75 1 7.10250 139.408 9 985 0 0 7.14000 139.408 3 67 987 7.00251 139.505 TC 75 7.16562 139.514 3 75 7.00251 139.505 75 983 180 6 0
1955107N07139 1955 29 WP MM ANITA 1955-04-17 06:00:00 TS 7.37083 139.469 980 tokyo main 1002 1002 OOO______OPO__ jtwc_wp WP031955 7.30000 139.500 80 1 7.40000 139.400 9 980 0 0 0 7.40000 139.400 4 77 980 7.30000 139.500 TC 80 7.52500 139.512 3 80 7.30000 139.500 80 982 180 7 356
1955107N07139 1955 29 WP MM ANITA 1955-04-17 09:00:00 TS 7.74739 139.438 main 1028 1028 PPP______PPP__ WP031955 7.74249 139.472 85 2 7.69250 139.365 9 980 0 0 7.69250 139.365 4 77 980 7.74249 139.472 TC 85 7.87188 139.480 3 85 7.74249 139.472 85 982 180 8 352
1955107N07139 1955 29 WP MM ANITA 1955-04-17 12:00:00 TS 8.13333 139.367 980 tokyo main 1070 1070 OOO______OOO__ jtwc_wp WP031955 8.20000 139.400 90 2 8.00000 139.300 9 980 0 0 0 8.00000 139.300 4 77 980 8.20000 139.400 TC 90 8.20000 139.400 4 90 8.20000 139.400 90 983 180 7 346
1955107N07139 1955 29 WP MM ANITA 1955-04-17 15:00:00 TS 8.45493 139.259 main 1108 1104 PPP______PPP__ WP031955 8.52998 139.280 90 2 8.34249 139.222 9 980 0 0 8.29248 139.230 4 77 980 8.52998 139.280 TC 90 8.50467 139.263 4 87 8.52998 139.280 90 983 210 7 336
1955107N07139 1955 29 WP MM ANITA 1955-04-17 18:00:00 TS 8.74791 139.096 980 tokyo main 1122 1122 OOO______OPO__ jtwc_wp WP031955 8.80000 139.100 90 2 8.70000 139.100 9 980 0 0 0 8.60000 139.100 4 77 980 8.80000 139.100 TC 90 8.78747 139.075 4 85 8.80000 139.100 90 984 240 7 327
1955107N07139 1955 29 WP MM ANITA 1955-04-17 21:00:00 TS 9.05234 138.873 main 1157 1154 PPP______PPP__ WP031955 9.07252 138.858 85 2 9.07996 138.938 9 980 0 0 8.96500 138.880 4 72 983 9.07252 138.858 TC 85 9.05153 138.850 4 82 9.07252 138.858 85 985 240 7 320
1955107N07139 1955 29 WP MM ANITA 1955-04-18 00:00:00 TS 9.31667 138.617 980 tokyo main 1168 1168 OOO______OOO__ jtwc_wp WP031955 9.30000 138.600 80 1 9.40000 138.700 9 980 0 0 0 9.30000 138.600 4 68 986 9.30000 138.600 TC 80 9.30000 138.600 4 80 9.30000 138.600 80 986 240 7 311
1955107N07139 1955 29 WP MM ANITA 1955-04-18 03:00:00 TS 9.48730 138.367 main 1184 1181 PPP______PPP__ WP031955 9.44243 138.415 75 1 9.55758 138.350 9 985 0 0 9.50752 138.292 4 68 987 9.44243 138.415 TC 75 9.53140 138.314 4 77 9.44243 138.415 75 987 240 6 304
1955107N07139 1955 29 WP MM ANITA 1955-04-18 06:00:00 TS 9.65837 138.102 990 tokyo main 1197 1195 OOO______OPO__ jtwc_wp WP031955 9.60000 138.200 70 1 9.70000 138.000 9 990 0 0 0 9.70000 138.000 4 68 989 9.60000 138.200 TC 70 9.75022 138.013 4 75 9.60000 138.200 70 989 240 7 309
1955107N07139 1955 29 WP MM ANITA 1955-04-18 09:00:00 TS 9.94237 137.791 main 1212 1212 PPP______PPP__ WP031955 9.89262 137.828 70 1 9.99996 137.763 9 990 0 0 10.0075 137.770 4 63 991 9.89262 137.828 TC 70 9.96891 137.730 4 72 9.89262 137.828 70 989 240 8 316
1955107N07139 1955 29 WP MM ANITA 1955-04-18 12:00:00 TS 10.2333 137.533 990 tokyo main 1230 1224 OOO______OOO__ jtwc_wp WP031955 10.2000 137.500 70 1 10.3000 137.600 9 990 0 0 0 10.3000 137.600 3 58 993 10.2000 137.500 TC 70 10.2000 137.500 4 70 10.2000 137.500 70 990 240 6 324
1955107N07139 1955 29 WP MM ANITA 1955-04-18 15:00:00 TS 10.4252 137.436 main 1224 1224 PPP______PPP__ WP031955 10.3924 137.412 70 1 10.4650 137.485 9 990 0 0 10.4650 137.500 3 53 994 10.3924 137.412 TC 70 10.4442 137.391 4 65 10.3924 137.412 70 990 240 4 340
1955107N07139 1955 29 WP MM ANITA 1955-04-18 18:00:00 TS 10.6175 137.389 990 tokyo main 1230 1222 OOO______OPO__ jtwc_wp WP031955 10.6000 137.400 70 1 10.6000 137.400 9 990 0 0 0 10.6000 137.400 3 48 996 10.6000 137.400 TC 70 10.7047 137.334 4 61 10.6000 137.400 70 991 240 5 343
1955107N07139 1955 29 WP MM ANITA 1955-04-18 21:00:00 TS 10.8876 137.296 main 1228 1219 PPP______PPP__ WP031955 10.9200 137.315 60 0 10.7924 137.330 9 992 0 0 10.7850 137.215 3 43 997 10.9200 137.315 TC 60 10.9879 137.285 4 56 10.9200 137.315 61 993 210 6 340
1955107N07139 1955 29 WP MM ANITA 1955-04-19 00:00:00 TS 11.2000 137.167 995 tokyo main 1224 1207 OOO______OOO__ jtwc_wp WP031955 11.3000 137.200 50 0 11.0000 137.200 9 995 0 0 0 11.0000 137.000 2 38 998 11.3000 137.200 TC 50 11.3000 137.200 2 52 11.3000 137.200 52 995 180 7 335
1955107N07139 1955 29 WP MM ANITA 1955-04-19 03:00:00 TS 11.5332 136.994 main 1209 1195 PPP______PPP__ WP031955 11.7000 137.080 47 0 11.1776 136.908 9 995 0 0 11.2350 136.792 2 38 997 11.7000 137.080 TC 47 11.6869 137.027 2 50 11.7000 137.080 48 996 180 8 331
1955107N07139 1955 29 WP MM ANITA 1955-04-19 06:00:00 TS 11.8825 136.785 995 tokyo main 1198 1182 OOO______OPO__ jtwc_wp WP031955 12.1000 136.900 45 0 11.4000 136.600 9 995 0 0 0 11.5000 136.600 2 38 997 12.1000 136.900 TC 45 12.0950 136.811 2 48 12.1000 136.900 45 998 180 8 328
1955107N07139 1955 29 WP MM ANITA 1955-04-19 09:00:00 TS 12.2376 136.553 main 1184 1156 PPP______PPP__ WP031955 12.4800 136.623 45 0 11.7199 136.435 9 995 0 0 11.7850 136.450 2 43 995 12.4800 136.623 TC 45 12.4806 136.564 2 46 12.4800 136.623 45 997 180 8 325
1955107N07139 1955 29 WP MM ANITA 1955-04-19 12:00:00 TS 12.5667 136.300 995 tokyo main 1157 1139 OOO______OOO__ jtwc_wp WP031955 12.8000 136.300 45 0 12.1000 136.300 9 995 0 0 0 12.1000 136.300 3 48 993 12.8000 136.300 TC 45 12.8000 136.300 2 45 12.8000 136.300 45 997 180 8 321
1955107N07139 1955 29 WP MM ANITA 1955-04-19 15:00:00 TS 12.8552 136.040 main 1130 1111 PPP______PPP__ WP031955 13.0450 135.992 50 0 12.5225 136.115 9 995 0 0 12.4650 136.115 3 53 991 13.0450 135.992 TC 50 13.0091 136.035 2 50 13.0450 135.992 50 996 180 7 315
1955107N07139 1955 29 WP MM ANITA 1955-04-19 18:00:00 TS 13.0746 135.776 995 tokyo main 1113 1083 OOO______OPO__ jtwc_wp WP031955 13.2000 135.700 55 0 12.9000 135.900 9 995 0 0 0 12.8000 135.900 3 58 989 13.2000 135.700 TC 55 13.1475 135.757 2 55 13.2000 135.700 55 996 180 6 305
1955107N07139 1955 29 WP MM ANITA 1955-04-19 21:00:00 TS 13.2074 135.528 main 1083 1064 PPP______PPP__ WP031955 13.2724 135.450 60 0 13.1524 135.672 9 992 0 0 13.0374 135.672 3 58 988 13.2724 135.450 TC 60 13.2372 135.476 2 60 13.2724 135.450 60 996 210 5 293
1955107N07139 1955 29 WP MM ANITA 1955-04-20 00:00:00 TS 13.2833 135.267 990 tokyo main 1064 1033 OOO______OOO__ jtwc_wp WP031955 13.3000 135.200 65 1 13.3000 135.400 9 990 0 0 0 13.2000 135.400 3 58 988 13.3000 135.200 TC 65 13.3000 135.200 3 65 13.3000 135.200 65 997 240 6 284
1955107N07139 1955 29 WP MM ANITA 1955-04-20 03:00:00 TS 13.3449 134.949 main 1022 1004 PPP______PPP__ WP031955 13.3500 134.893 65 1 13.3651 135.042 9 990 0 0 13.3151 135.050 3 58 989 13.3500 134.893 TC 65 13.3391 134.926 3 61 13.3500 134.893 65 997 210 6 280
1955107N07139 1955 29 WP MM ANITA 1955-04-20 06:00:00 TS 13.3938 134.644 990 tokyo main 993 973 OOO______OPO__ jtwc_wp WP031955 13.4000 134.600 65 1 13.4000 134.700 9 990 0 0 0 13.4000 134.700 3 58 990 13.4000 134.600 TC 65 13.3625 134.662 3 58 13.4000 134.600 65 998 180 5 281
1955107N07139 1955 29 WP MM ANITA 1955-04-20 09:00:00 TS 13.4441 134.408 main 973 954 PPP______PPP__ WP031955 13.4275 134.377 57 0 13.4849 134.477 9 990 0 0 13.4925 134.420 3 58 991 13.4275 134.377 TC 57 13.4047 134.417 3 55 13.4275 134.377 58 997 180 4 289
1955107N07139 1955 29 WP MM ANITA 1955-04-20 12:00:00 TS 13.5333 134.217 990 tokyo main 954 945 OOO______OOO__ jtwc_wp WP031955 13.5000 134.200 50 0 13.6000 134.300 9 990 0 0 0 13.6000 134.200 3 58 992 13.5000 134.200 TC 50 13.5000 134.200 2 52 13.5000 134.200 52 997 180 4 305
1955107N07139 1955 29 WP MM ANITA 1955-04-20 15:00:00 TS 13.6896 134.042 main 936 928 PPP______PPP__ WP031955 13.6625 134.042 45 0 13.7350 134.092 9 990 0 0 13.7350 134.035 3 58 993 13.6625 134.042 TC 45 13.6803 133.997 2 49 13.6625 134.042 46 997 180 5 319
1955107N07139 1955 29 WP MM ANITA 1955-04-20 18:00:00 TS 13.9029 133.888 990 tokyo main 930 913 OOO______OPO__ jtwc_wp WP031955 13.9000 133.900 40 0 13.9000 133.900 9 990 0 0 0 13.9000 133.900 3 58 995 13.9000 133.900 TC 40 13.9174 133.825 2 46 13.9000 133.900 40 997 180 6 325
1955107N07139 1955 29 WP MM ANITA 1955-04-20 21:00:00 TS 14.1435 133.716 main 913 908 PPP______PPP__ WP031955 14.1850 133.720 40 0 14.0550 133.720 9 992 0 0 14.0550 133.728 3 53 996 14.1850 133.720 TC 40 14.1959 133.691 2 43 14.1850 133.720 40 997 210 6 332
1955107N07139 1955 29 WP MM ANITA 1955-04-21 00:00:00 TS 14.4333 133.600 995 tokyo main 910 910 OOO______OOO__ jtwc_wp WP031955 14.5000 133.600 40 0 14.3000 133.600 9 995 0 0 0 14.3000 133.600 3 48 997 14.5000 133.600 TC 40 14.5000 133.600 2 40 14.5000 133.600 40 997 240 6 352
1955107N07139 1955 29 WP MM ANITA 1955-04-21 03:00:00 TS 14.7697 133.615 main 923 923 PPP______PPP__ WP031955 14.7925 133.635 50 0 14.7125 133.600 9 995 0 0 14.7125 133.600 3 43 997 14.7925 133.635 TC 50 14.8155 133.589 2 50 14.7925 133.635 50 997 210 7 4
1955107N07139 1955 29 WP MM ANITA 1955-04-21 06:00:00 TS 15.1416 133.652 995 tokyo main 943 937 OOO______OPO__ jtwc_wp WP031955 15.1000 133.700 60 0 15.2000 133.600 9 995 0 0 0 15.2000 133.600 2 38 998 15.1000 133.700 TC 60 15.1498 133.614 2 60 15.1000 133.700 60 998 180 8 358
1955107N07139 1955 29 WP MM ANITA 1955-04-21 09:00:00 TS 15.5324 133.605 main 949 949 PPP______PPP__ WP031955 15.4575 133.680 70 1 15.6650 133.480 9 995 0 0 15.6725 133.480 2 43 996 15.4575 133.680 TC 70 15.4842 133.633 2 70 15.4575 133.680 70 996 180 8 349
1955107N07139 1955 29 WP MM ANITA 1955-04-21 12:00:00 TS 15.9000 133.500 995 tokyo main 957 952 OOO______OOO__ jtwc_wp WP031955 15.8000 133.600 80 1 16.1000 133.300 9 995 0 0 0 16.1000 133.300 3 48 994 15.8000 133.600 TC 80 15.8000 133.600 3 80 15.8000 133.600 80 994 180 7 340
1955107N07139 1955 29 WP MM ANITA 1955-04-21 15:00:00 TS 16.1993 133.357 main 962 952 PPP______PPP__ WP031955 16.0650 133.480 80 1 16.4874 133.122 9 992 0 0 16.4375 133.115 3 53 992 16.0650 133.480 TC 80 16.0757 133.462 3 75 16.0650 133.480 80 992 180 6 330
1955107N07139 1955 29 WP MM ANITA 1955-04-21 18:00:00 TS 16.4550 133.161 990 tokyo main 959 942 OOO______OPO__ jtwc_wp WP031955 16.3000 133.300 80 1 16.8000 132.900 9 990 0 0 0 16.7000 132.900 3 58 991 16.3000 133.300 TC 80 16.3301 133.268 3 70 16.3000 133.300 80 990 180 7 320
1955107N07139 1955 29 WP MM ANITA 1955-04-21 21:00:00 TS 16.7004 132.910 main 942 930 PPP______PPP__ WP031955 16.5575 133.065 70 1 17.0376 132.585 9 987 0 0 16.9225 132.642 3 63 989 16.5575 133.065 TC 70 16.5694 133.040 3 65 16.5575 133.065 70 989 210 7 313
1955107N07139 1955 29 WP MM ANITA 1955-04-22 00:00:00 TS 16.9167 132.650 985 tokyo main 936 923 OOO______OOO__ jtwc_wp WP031955 16.8000 132.800 60 0 17.2000 132.300 9 985 0 0 0 17.1000 132.400 4 68 988 16.8000 132.800 TC 60 16.8000 132.800 2 60 16.8000 132.800 60 988 240 6 311
1955107N07139 1955 29 WP MM ANITA 1955-04-22 03:00:00 TS 17.1002 132.434 main 923 921 PPP______PPP__ WP031955 17.0000 132.542 65 1 17.3074 132.170 9 985 0 0 17.2575 132.227 4 68 988 17.0000 132.542 TC 65 17.0362 132.578 2 62 17.0000 132.542 65 988 240 5 313
1955107N07139 1955 29 WP MM ANITA 1955-04-22 06:00:00 TS 17.2775 132.242 985 tokyo main 918 912 OOO______OPO__ jtwc_wp WP031955 17.2000 132.300 70 1 17.4000 132.100 9 985 0 0 0 17.4000 132.100 4 68 988 17.2000 132.300 TC 70 17.2650 132.350 2 65 17.2000 132.300 70 988 240 5 318
1955107N07139 1955 29 WP MM ANITA 1955-04-22 09:00:00 TS 17.4943 132.068 main 917 903 PPP______PPP__ WP031955 17.4575 132.092 70 1 17.5500 132.007 9 985 0 0 17.5575 132.000 4 68 988 17.4575 132.092 TC 70 17.4862 132.122 2 67 17.4575 132.092 70 988 210 5 322
1955107N07139 1955 29 WP MM ANITA 1955-04-22 12:00:00 TS 17.7000 131.900 985 tokyo main 908 894 OOO______OOO__ jtwc_wp WP031955 17.7000 131.900 70 1 17.7000 131.900 9 985 0 0 0 17.7000 131.900 4 68 988 17.7000 131.900 TC 70 17.7000 131.900 3 70 17.7000 131.900 70 988 180 5 316
1955107N07139 1955 29 WP MM ANITA 1955-04-22 15:00:00 TS 17.8428 131.716 main 894 887 PPP______PPP__ WP031955 17.8500 131.700 70 1 17.8000 131.757 9 985 0 0 17.8000 131.757 4 72 987 17.8500 131.700 TC 70 17.9071 131.685 3 70 17.8500 131.700 70 988 180 5 309
1955107N07139 1955 29 WP MM ANITA 1955-04-22 18:00:00 TS 17.9846 131.530 985 tokyo main 887 883 OOO______OPO__ jtwc_wp WP031955 18.0000 131.500 70 1 17.9000 131.600 9 985 0 0 0 17.9000 131.600 4 77 987 18.0000 131.500 TC 70 18.1074 131.477 3 70 18.0000 131.500 70 989 180 5 314
1955107N07139 1955 29 WP MM ANITA 1955-04-22 21:00:00 TS 18.1873 131.346 main 880 877 PPP______PPP__ WP031955 18.2500 131.293 70 1 18.0350 131.457 9 985 0 0 18.0350 131.457 4 77 987 18.2500 131.293 TC 70 18.3040 131.281 3 70 18.2500 131.293 70 989 210 5 320
1955107N07139 1955 29 WP MM ANITA 1955-04-23 00:00:00 TS 18.4000 131.167 985 tokyo main 883 872 OOO______OOO__ jtwc_wp WP031955 18.5000 131.100 70 1 18.2000 131.300 9 985 0 0 0 18.2000 131.300 4 77 987 18.5000 131.100 TC 70 18.5000 131.100 4 70 18.5000 131.100 70 989 240 5 320
1955107N07139 1955 29 WP MM ANITA 1955-04-23 03:00:00 TS 18.5719 130.998 main 879 868 PPP______PPP__ WP031955 18.6500 130.942 70 1 18.3849 131.122 9 987 0 0 18.3925 131.107 4 77 987 18.6500 130.942 TC 70 18.7040 130.931 4 70 18.6500 130.942 70 988 210 5 318
1955107N07139 1955 29 WP MM ANITA 1955-04-23 06:00:00 TS 18.7512 130.830 990 tokyo main 875 874 OOO______OPO__ jtwc_wp WP031955 18.8000 130.800 70 1 18.6000 130.900 9 990 0 0 0 18.6000 130.900 4 77 987 18.8000 130.800 TC 70 18.9074 130.777 4 70 18.8000 130.800 70 987 180 5 321
1955107N07139 1955 29 WP MM ANITA 1955-04-23 09:00:00 TS 18.9845 130.645 main 873 866 PPP______PPP__ WP031955 19.0500 130.650 70 1 18.8501 130.585 9 990 0 0 18.8000 130.700 4 77 985 19.0500 130.650 TC 70 19.1071 130.635 4 70 19.0500 130.650 70 984 180 6 324
1955107N07139 1955 29 WP MM ANITA 1955-04-23 12:00:00 TS 19.2167 130.467 990 tokyo main 867 847 OOO______OOO__ jtwc_wp WP031955 19.3000 130.500 70 1 19.1000 130.300 9 990 0 0 0 19.0000 130.500 4 77 984 19.3000 130.500 TC 70 19.3000 130.500 4 70 19.3000 130.500 70 982 180 5 321
1955107N07139 1955 29 WP MM ANITA 1955-04-23 15:00:00 TS 19.3922 130.300 main 848 839 PPP______PPP__ WP031955 19.4575 130.342 70 1 19.3149 130.162 9 990 0 0 19.2000 130.278 4 77 982 19.4575 130.342 TC 70 19.4660 130.335 4 70 19.4575 130.342 70 980 240 4 320
1955107N07139 1955 29 WP MM ANITA 1955-04-23 18:00:00 TS 19.5546 130.164 990 tokyo main 841 830 OOO______OPO__ jtwc_wp WP031955 19.6000 130.200 70 1 19.5000 130.100 9 990 0 0 0 19.4000 130.100 4 77 980 19.6000 130.200 TC 70 19.6275 130.183 4 70 19.6000 130.200 70 978 300 4 325
1955107N07139 1955 29 WP MM ANITA 1955-04-23 21:00:00 TS 19.7192 130.056 main 832 822 PPP______PPP__ WP031955 19.7625 130.070 70 1 19.6350 130.042 9 985 0 0 19.5925 130.020 4 82 977 19.7625 130.070 TC 70 19.8003 130.064 4 70 19.7625 130.070 70 976 300 4 338
1955107N07139 1955 29 WP MM ANITA 1955-04-24 00:00:00 TS 19.9333 130.000 980 tokyo main 825 825 OOO______OOO__ jtwc_wp WP031955 20.0000 130.000 70 1 19.8000 130.000 9 980 0 0 0 19.8000 130.000 5 87 975 20.0000 130.000 TC 70 20.0000 130.000 4 70 20.0000 130.000 70 974 300 5 354
1955107N07139 1955 29 WP MM ANITA 1955-04-24 03:00:00 TS 20.2577 129.991 main 835 835 PPP______PPP__ WP031955 20.4075 130.020 70 1 20.0625 129.928 9 980 0 0 20.0275 129.978 5 87 975 20.4075 130.020 TC 70 20.2338 129.981 4 70 20.4075 130.020 70 973 270 7 4
1955107N07139 1955 29 WP MM ANITA 1955-04-24 06:00:00 TS 20.5995 130.037 980 tokyo main 843 843 OOO______OPO__ jtwc_wp WP031955 20.8000 130.100 70 1 20.4000 129.900 9 980 0 0 0 20.3000 130.000 5 87 975 20.8000 130.100 TC 70 20.4971 130.023 4 70 20.8000 130.100 70 973 240 6 11
1955107N07139 1955 29 WP MM ANITA 1955-04-24 09:00:00 TS 20.8665 130.118 main 863 863 PPP______PPP__ WP031955 20.9800 130.185 70 1 20.8225 129.955 9 980 0 0 20.6500 130.070 5 87 974 20.9800 130.185 TC 70 20.7869 130.128 4 70 20.9800 130.185 70 972 240 5 22
1955107N07139 1955 29 WP MM ANITA 1955-04-24 12:00:00 TS 21.1000 130.250 980 tokyo main 889 889 OOO______OOO__ jtwc_wp WP031955 21.1000 130.300 70 1 21.2000 130.100 9 980 0 0 0 21.0000 130.200 5 87 974 21.1000 130.300 TC 70 21.1000 130.300 4 70 21.1000 130.300 70 972 240 5 32
1955107N07139 1955 29 WP MM ANITA 1955-04-24 15:00:00 TS 21.3048 130.415 main 906 906 PPP______PPP__ WP031955 21.2473 130.398 70 1 21.3725 130.328 9 980 0 0 21.2650 130.385 5 82 975 21.2473 130.398 TC 70 21.4494 130.583 4 73 21.2473 130.398 70 971 240 6 40
1955107N07139 1955 29 WP MM ANITA 1955-04-24 18:00:00 TS 21.5527 130.653 980 tokyo main 947 947 OOO______OPO__ jtwc_wp WP031955 21.5000 130.600 70 1 21.5000 130.600 9 980 0 0 0 21.5000 130.600 4 77 976 21.5000 130.600 TC 70 21.8160 130.920 4 77 21.5000 130.600 70 970 240 8 40
1955107N07139 1955 29 WP MM ANITA 1955-04-24 21:00:00 TS 21.9521 130.996 main 970 970 PPP______PPP__ WP031955 22.0153 131.026 77 1 21.7350 130.850 9 980 0 0 21.7575 130.800 4 77 977 22.0153 131.026 TC 77 22.1744 131.248 4 81 22.0153 131.026 77 971 210 10 40
1955107N07139 1955 29 WP MM ANITA 1955-04-25 00:00:00 TS 22.3333 131.350 980 tokyo main 973 952 OOO______OOO__ jtwc_wp WP031955 22.5000 131.500 85 2 22.0000 131.100 9 980 0 0 0 22.0000 131.000 4 77 979 22.5000 131.500 TC 85 22.5000 131.500 4 85 22.5000 131.500 85 973 180 8 45
1955107N07139 1955 29 WP MM ANITA 1955-04-25 03:00:00 TS 22.5369 131.632 main 953 933 PPP______PPP__ WP031955 22.6224 131.913 92 2 22.2725 131.365 9 980 0 0 22.2524 131.185 4 72 981 22.6223 131.823 TC 92 22.8296 131.595 4 88 22.6224 131.913 92 976 180 6 51
1955107N07139 1955 29 WP MM ANITA 1955-04-25 06:00:00 TS 22.6858 131.818 980 tokyo main 933 912 OOO______OPO__ jtwc_wp WP031955 22.7000 132.100 100 3 22.5000 131.600 9 980 0 0 0 22.4000 131.400 4 68 983 22.7000 132.100 TC 100 23.1146 131.606 4 92 22.7000 132.100 100 980 180 4 29
1955107N07139 1955 29 WP MM ANITA 1955-04-25 09:00:00 TS 22.9122 131.860 main 912 888 PPP______PPP__ WP031955 23.0578 131.786 100 3 22.6375 131.788 9 985 0 0 22.3452 131.760 4 68 985 23.0576 132.474 TC 100 23.3173 131.564 4 96 23.0578 131.786 100 983 180 4 6
1955107N07139 1955 29 WP MM ANITA 1955-04-25 12:00:00 TS 23.0833 131.850 990 tokyo main 890 890 OOO______OOO__ jtwc_wp WP031955 23.4000 131.500 100 3 22.7000 131.900 9 990 0 0 0 22.2000 132.000 4 68 988 23.4000 132.700 TC 100 23.4000 131.500 4 100 23.4000 131.500 100 987 180 2 23
1955107N07139 1955 29 WP MM ANITA 1955-04-25 15:00:00 TS 23.1212 131.960 main 891 891 PPP______PPP__ WP031955 23.5705 131.930 95 2 22.7150 131.930 9 995 0 0 22.0326 131.837 4 63 991 23.5697 132.621 TC 95 23.2691 131.509 4 92 23.5705 131.930 94 990 180 1 110
1955107N07139 1955 29 WP MM ANITA 1955-04-25 18:00:00 TS 23.0383 131.983 1000 tokyo main 902 901 OOO______OPO__ jtwc_wp WP031955 23.5000 132.300 90 2 22.7000 131.900 9 1000 0 0 0 22.0000 131.600 3 58 994 23.5000 132.300 TC 90 23.0296 131.497 4 84 23.5000 132.300 88 994 180 3 209
1955107N07139 1955 29 WP MM ANITA 1955-04-25 21:00:00 TS 22.8169 131.776 main 922 921 PPP______PPP__ WP031955 23.0429 131.926 80 1 22.6925 131.872 9 1000 0 0 22.3049 131.657 3 53 996 23.0428 131.836 TC 80 22.7752 131.437 4 76 23.0429 131.926 78 996 150 6 231
1955107N07139 1955 29 WP MM ANITA 1955-04-26 00:00:00 TS 22.6333 131.450 1000 tokyo main 941 927 OOO______OOO__ jtwc_wp WP031955 22.6000 131.300 70 1 22.7000 131.800 9 1000 0 0 0 22.7000 131.700 3 48 999 22.6000 131.300 TC 70 22.6000 131.300 4 68 22.6000 131.300 68 998 120 6 257
1955107N07139 1955 29 WP MM ANITA 1955-04-26 03:00:00 TS 22.6808 131.111 main 927 915 PPP______PPP__ WP031955 22.6101 130.806 55 0 22.7350 131.672 9 1000 0 0 22.9450 131.510 3 48 999 22.6101 130.806 TC 55 22.5747 131.068 4 58 22.6101 130.806 54 999 90 6 290
1955107N07139 1955 29 WP MM ANITA 1955-04-26 06:00:00 TS 22.8418 130.834 1000 tokyo main 915 893 OOO______OPO__ jtwc_wp WP031955 22.8000 130.400 40 0 22.8000 131.500 9 1000 0 0 0 23.1000 131.200 3 48 1000 22.8000 130.400 TC 40 22.6787 130.757 4 49 22.8000 130.400 40 1000 60 5 306
1955107N07139 1955 29 WP MM ANITA 1955-04-26 09:00:00 TS 22.9856 130.660 main 893 882 PPP______PPP__ WP031955 22.9674 130.152 35 0 22.8848 131.337 9 1000 0 0 23.1724 130.880 3 43 1000 22.9674 130.152 TC 35 22.8682 130.392 4 39 22.9674 130.152 35 1000 60 4 313
1955107N07139 1955 29 WP MM ANITA 1955-04-26 12:00:00 TS 23.1000 130.533 1000 tokyo main 882 871 OOO______OOO__ jtwc_wp WP031955 23.1000 130.000 30 -1 23.0000 131.100 9 1000 0 0 0 23.2000 130.500 2 38 1000 23.1000 130.000 TC 30 23.1000 130.000 1 30 23.1000 130.000 30 1001 60 3 310
1955107N07139 1955 29 WP MM ANITA 1955-04-26 15:00:00 TS 23.1736 130.416 main 871 833 _PP___________ WP031955 -1 23.1272 130.767 9 1002 0 0 23.2200 130.065 2 38 1002 TC 1 6 290
1955107N07139 1955 29 WP MM ANITA 1955-04-26 18:00:00 TS 23.3000 129.950 1005 tokyo main 833 768 _OO___________ -1 23.3000 130.300 9 1005 0 0 0 23.3000 129.600 2 38 1005 1 10 291
1955107N07139 1955 29 WP MM ANITA 1955-04-26 21:00:00 TS 23.5278 129.389 main 768 710 _PP___________ -1 23.5355 129.650 9 1007 0 0 23.5200 129.128 2 38 1005 1 11 296
1955107N07139 1955 29 WP MM ANITA 1955-04-27 00:00:00 TS 23.8000 128.850 1010 tokyo main 710 656 _OO___________ -1 23.8000 129.000 9 1010 0 0 0 23.8000 128.700 2 38 1005 10 300
1955107N07139 1955 29 WP MM ANITA 1955-04-27 03:00:00 TS 24.0349 128.429 main 656 630 _PP___________ -1 24.0348 128.517 9 1011 0 0 24.0349 128.340 2 33 1006 8 308
1955107N07139 1955 29 WP MM ANITA 1955-04-27 06:00:00 TS 24.3000 128.150 1012 tokyo main 630 606 _OO___________ -1 24.3000 128.200 2 1012 0 0 0 24.3000 128.100 1 29 1008 7 328
1955107N07139 1955 29 WP MM ANITA 1955-04-27 09:00:00 TS 24.6611 127.996 main 605 604 _PP___________ -1 24.6648 128.003 2 1012 0 0 24.6574 127.990 1 26 1008 7 349
1955107N07139 1955 29 WP MM ANITA 1955-04-27 12:00:00 TS 25.0000 128.000 1012 tokyo main 604 604 _OO___________ -1 25.0000 128.000 2 1012 0 0 0 25.0000 128.000 1 23 1008 5 12
1955107N07139 1955 29 WP MM ANITA 1955-04-27 15:00:00 TS 25.1862 128.123 main 614 614 _PP___________ -1 25.1576 128.198 2 1012 0 0 25.2149 128.048 1 23 1008 5 42
1955107N07139 1955 29 WP MM ANITA 1955-04-27 18:00:00 TS 25.3500 128.350 1012 tokyo main 644 636 _OO___________ -1 25.3000 128.500 2 1012 0 0 0 25.4000 128.200 1 23 1008 6 46
1955107N07139 1955 29 WP MM ANITA 1955-04-27 21:00:00 TS 25.6062 128.599 main 636 595 _PP___________ -1 25.5774 128.743 2 1012 0 0 25.6350 128.455 1 1009 7 42
1955107N07139 1955 29 WP MM ANITA 1955-04-28 00:00:00 TS 25.9000 128.900 1013 tokyo main 595 555 _OO___________ -1 25.9000 129.000 2 1013 0 0 0 25.9000 128.800 0 1010 8 45
1955107N07139 1955 29 WP MM ANITA 1955-04-28 03:00:00 TS 26.1736 129.224 main 555 513 _PP___________ -1 26.1773 129.271 2 1012 0 0 26.1699 129.178 0 1010 9 46
1955107N07139 1955 29 WP MM ANITA 1955-04-28 06:00:00 ET 26.5000 129.600 1012 tokyo main 513 462 _OO___________ -1 26.5000 129.600 6 1012 0 0 0 26.5000 129.600 9 1010 10 44
1955107N07139 1955 29 WP MM ANITA 1955-04-28 09:00:00 ET 26.9198 130.020 main 462 402 _PP___________ -1 26.9197 129.998 6 1012 0 0 26.9199 130.043 9 1010 12 42
1955107N07139 1955 29 WP MM ANITA 1955-04-28 12:00:00 ET 27.4000 130.500 1012 tokyo main 402 347 _OO___________ -1 27.4000 130.500 6 1012 0 0 0 27.4000 130.500 9 1010 13 43
1955107N07139 1955 29 WP MM ANITA 1955-04-28 15:00:00 ET 27.9076 131.050 main 347 302 _PP___________ -1 27.9077 131.127 6 1012 0 0 27.9075 130.972 9 1011 14 44
1955107N07139 1955 29 WP MM ANITA 1955-04-28 18:00:00 ET 28.4000 131.600 1012 tokyo main 302 275 _OO___________ -1 28.4000 131.800 6 1012 0 0 0 28.4000 131.400 9 1012 13 44
1955107N07139 1955 29 WP MM ANITA 1955-04-28 21:00:00 ET 28.8145 132.043 main 275 258 _PP___________ -1 28.8147 132.416 6 1012 0 0 28.8143 131.671 9 1012 11 45
1955107N07139 1955 29 WP MM ANITA 1955-04-29 00:00:00 ET 29.2000 132.500 1012 tokyo main 265 246 _OO___________ -1 29.2000 133.000 6 1012 0 0 0 29.2000 132.000 9 1012 12 46
1955107N07139 1955 29 WP MM ANITA 1955-04-29 03:00:00 ET 29.6518 133.032 main 243 243 _PP___________ -1 29.6587 133.497 6 1012 0 0 29.6448 132.567 9 1012 13 53
1955107N07139 1955 29 WP MM ANITA 1955-04-29 06:00:00 ET 30.0000 133.700 1012 tokyo main 269 269 _OO___________ -1 30.0000 134.100 6 1012 0 0 0 30.0000 133.300 9 1012 14 70
1955107N07139 1955 29 WP MM ANITA 1955-04-29 09:00:00 ET 30.1286 134.540 main 322 322 _PP___________ -1 30.0752 134.983 6 1012 0 0 30.1820 134.098 9 1012 16 86
1955107N07139 1955 29 WP MM ANITA 1955-04-29 12:00:00 ET 30.1000 135.500 1012 tokyo main 366 366 _OO___________ -1 30.0000 136.000 6 1012 0 0 0 30.2000 135.000 9 1012 17 92
1955107N07139 1955 29 WP MM ANITA 1955-04-29 15:00:00 ET 30.0598 136.465 main 373 373 _PP___________ -1 29.9608 137.067 6 1012 0 0 30.1589 135.862 9 1012 17 98
1955107N07139 1955 29 WP MM ANITA 1955-04-29 18:00:00 ET 29.8571 137.429 1012 tokyo main 418 418 _OO___________ -1 29.8000 138.000 6 1012 0 0 0 29.9000 137.000 9 1012 20 112
1955107N07139 1955 29 WP MM ANITA 1955-04-29 21:00:00 ET 29.3318 138.580 main 528 528 _PP___________ -1 29.4543 138.603 6 1013 0 0 29.2706 138.568 9 1013 26 116
1955107N07139 1955 29 WP MM ANITA 1955-04-30 00:00:00 ET 28.7000 140.125 1014 tokyo main 664 664 _OO___________ -1 29.0000 139.000 6 1014 0 0 0 28.6000 140.500 9 1014 38 107
1955107N07139 1955 29 WP MM ANITA 1955-04-30 03:00:00 ET 28.2133 142.684 main 792 792 __P___________ -1 6 0 0 28.2133 142.684 9 1014 43 99
1955107N07139 1955 29 WP MM ANITA 1955-04-30 06:00:00 ET 28.0000 145.000 main 908 __O___________ -1 28.0000 145.000 9 1014 41 96

Digital Typhoon Data and Search

About IBTrACS Database

This database is a web-friendly format of International Best Track Archive for Climate Stewardship (IBTrACS), a global best track data archive curated by NOAA dating back to 1842.

Updated: 2021-10-08